createdAt,value
2018-02-17T00:01:59.900Z,1.90
2018-02-17T00:04:42.536Z,1.90
2018-02-17T00:07:16.747Z,1.90
2018-02-17T00:09:56.632Z,1.90
2018-02-17T00:12:37.374Z,1.90
2018-02-17T00:15:15.638Z,1.80
2018-02-17T00:17:57.390Z,1.90
2018-02-17T00:20:36.969Z,1.80
2018-02-17T00:23:16.306Z,1.80
2018-02-17T00:25:56.191Z,1.80
2018-02-17T00:28:30.353Z,1.80
2018-02-17T00:31:05.600Z,1.60
2018-02-17T00:33:38.054Z,1.50
2018-02-17T00:36:18.122Z,1.50
2018-02-17T00:38:57.445Z,1.30
2018-02-17T00:41:36.047Z,1.30
2018-02-17T00:44:14.199Z,1.20
2018-02-17T00:46:53.768Z,1.20
2018-02-17T00:49:32.210Z,1.40
2018-02-17T00:52:11.596Z,1.40
2018-02-17T00:54:50.543Z,1.40
2018-02-17T00:57:29.364Z,1.40
2018-02-17T01:00:10.352Z,1.50
2018-02-17T01:02:49.624Z,1.50
2018-02-17T01:05:27.936Z,1.50
2018-02-17T01:08:05.092Z,1.50
2018-02-17T01:10:46.002Z,1.50
2018-02-17T01:13:26.812Z,1.50
2018-02-17T01:16:10.627Z,1.50
2018-02-17T01:18:50.598Z,1.40
2018-02-17T01:21:29.988Z,1.40
2018-02-17T01:24:08.534Z,1.40
2018-02-17T01:26:47.430Z,1.40
2018-02-17T01:29:27.097Z,1.40
2018-02-17T01:32:08.698Z,1.40
2018-02-17T01:34:47.973Z,1.40
2018-02-17T01:37:27.377Z,1.50
2018-02-17T01:40:07.569Z,1.50
2018-02-17T01:42:49.220Z,1.60
2018-02-17T01:45:28.626Z,1.60
2018-02-17T01:48:06.357Z,1.50
2018-02-17T01:50:46.656Z,1.50
2018-02-17T01:53:26.089Z,1.50
2018-02-17T01:56:03.334Z,1.50
2018-02-17T01:58:45.332Z,1.50
2018-02-17T02:01:28.725Z,1.50
2018-02-17T02:04:01.567Z,1.50
2018-02-17T02:06:41.283Z,1.50
2018-02-17T02:09:18.780Z,1.50
2018-02-17T02:11:52.861Z,1.50
2018-02-17T02:14:25.339Z,1.30
2018-02-17T02:17:04.394Z,1.20
2018-02-17T02:19:42.176Z,1.20
2018-02-17T02:22:20.385Z,1.20
2018-02-17T02:24:58.086Z,1.10
2018-02-17T02:27:31.641Z,1.10
2018-02-17T02:30:05.201Z,1.10
2018-02-17T02:32:38.184Z,1.10
2018-02-17T02:35:17.151Z,1.10
2018-02-17T02:37:56.428Z,1.20
2018-02-17T02:40:35.167Z,1.20
2018-02-17T02:43:12.962Z,1.20
2018-02-17T02:45:53.339Z,1.30
2018-02-17T02:48:31.979Z,1.30
2018-02-17T02:51:14.923Z,1.20
2018-02-17T02:53:56.063Z,1.20
2018-02-17T02:56:34.763Z,1.20
2018-02-17T02:59:13.680Z,1.20
2018-02-17T03:01:52.668Z,1.00
2018-02-17T03:04:33.091Z,1.00
2018-02-17T03:07:12.361Z,1.10
2018-02-17T03:09:52.065Z,1.20
2018-02-17T03:12:25.579Z,1.20
2018-02-17T03:15:05.412Z,1.10
2018-02-17T03:17:42.811Z,1.10
2018-02-17T03:20:22.401Z,1.10
2018-02-17T03:23:02.349Z,1.10
2018-02-17T03:25:44.998Z,1.20
2018-02-17T03:28:24.582Z,1.20
2018-02-17T03:31:03.751Z,1.20
2018-02-17T03:33:43.193Z,1.30
2018-02-17T03:36:19.929Z,1.30
2018-02-17T03:39:01.091Z,1.40
2018-02-17T03:41:40.487Z,1.40
2018-02-17T03:44:17.532Z,1.40
2018-02-17T03:46:55.220Z,1.40
2018-02-17T03:49:35.024Z,1.30
2018-02-17T03:52:13.915Z,1.20
2018-02-17T03:54:52.969Z,1.20
2018-02-17T03:57:30.951Z,1.30
2018-02-17T04:00:09.133Z,1.30
2018-02-17T04:02:48.409Z,1.30
2018-02-17T04:05:26.749Z,1.30
2018-02-17T04:08:04.995Z,1.30
2018-02-17T04:10:43.696Z,1.30
2018-02-17T04:13:20.922Z,1.30
2018-02-17T04:15:58.446Z,1.30
2018-02-17T04:18:39.074Z,1.40
2018-02-17T04:21:17.703Z,1.40
2018-02-17T04:23:56.478Z,1.30
2018-02-17T04:26:36.698Z,1.20
2018-02-17T04:29:13.827Z,1.20
2018-02-17T04:31:54.740Z,1.20
2018-02-17T04:34:33.580Z,1.10
2018-02-17T04:37:12.468Z,1.00
2018-02-17T04:39:53.773Z,1.00
2018-02-17T04:42:48.164Z,0.90
2018-02-17T04:45:23.678Z,0.90
2018-02-17T04:48:01.392Z,0.90
2018-02-17T04:50:44.821Z,0.90
2018-02-17T04:53:23.802Z,1.00
2018-02-17T04:56:15.722Z,1.10
2018-02-17T04:59:04.669Z,1.10
2018-02-17T05:01:46.741Z,1.10
2018-02-17T05:04:34.878Z,1.10
2018-02-17T05:07:27.501Z,1.10
2018-02-17T05:10:01.080Z,1.20
2018-02-17T05:12:47.360Z,1.20
2018-02-17T05:15:41.108Z,1.20
2018-02-17T05:18:29.357Z,1.10
2018-02-17T05:21:06.381Z,1.20
2018-02-17T05:23:42.394Z,1.10
2018-02-17T05:26:26.970Z,1.20
2018-02-17T05:29:06.605Z,1.20
2018-02-17T05:31:45.416Z,1.20
2018-02-17T05:34:33.600Z,1.20
2018-02-17T05:37:14.970Z,1.30
2018-02-17T05:39:56.682Z,1.30
2018-02-17T05:42:35.046Z,1.30
2018-02-17T05:45:15.147Z,1.30
2018-02-17T05:47:54.582Z,1.30
2018-02-17T05:50:36.454Z,1.40
2018-02-17T05:53:16.608Z,1.30
2018-02-17T05:55:56.753Z,1.30
2018-02-17T05:58:36.224Z,1.40
2018-02-17T06:01:15.540Z,1.30
2018-02-17T06:03:54.352Z,1.30
2018-02-17T06:06:33.875Z,1.30
2018-02-17T06:09:13.297Z,1.40
2018-02-17T06:11:53.143Z,1.30
2018-02-17T06:14:31.395Z,1.30
2018-02-17T06:17:12.340Z,1.40
2018-02-17T06:19:53.838Z,1.30
2018-02-17T06:22:34.226Z,1.40
2018-02-17T06:25:10.946Z,1.40
2018-02-17T06:27:49.427Z,1.40
2018-02-17T06:30:27.274Z,1.30
2018-02-17T06:33:05.062Z,1.30
2018-02-17T06:35:43.137Z,1.40
2018-02-17T06:38:23.453Z,1.40
2018-02-17T06:41:01.673Z,1.40
2018-02-17T06:43:40.524Z,1.40
2018-02-17T06:46:20.211Z,1.40
2018-02-17T06:49:00.140Z,1.40
2018-02-17T06:51:33.441Z,1.40
2018-02-17T06:54:13.356Z,1.40
2018-02-17T06:56:51.847Z,1.40
2018-02-17T06:59:33.147Z,1.40
2018-02-17T07:02:06.596Z,1.40
2018-02-17T07:04:45.772Z,1.50
2018-02-17T07:07:25.055Z,1.50
2018-02-17T07:10:05.547Z,1.50
2018-02-17T07:12:44.616Z,1.50
2018-02-17T07:15:27.852Z,1.50
2018-02-17T07:18:05.360Z,1.80
2018-02-17T07:20:43.344Z,1.60
2018-02-17T07:23:16.591Z,1.60
2018-02-17T07:25:56.551Z,1.70
2018-02-17T07:28:36.313Z,1.70
2018-02-17T07:31:15.329Z,1.70
2018-02-17T07:33:53.933Z,1.80
2018-02-17T07:36:34.639Z,1.90
2018-02-17T07:39:14.565Z,1.90
2018-02-17T07:41:54.807Z,1.90
2018-02-17T07:44:34.625Z,1.90
2018-02-17T07:47:14.270Z,1.90
2018-02-17T07:49:53.810Z,2.00
2018-02-17T07:52:34.479Z,2.00
2018-02-17T07:55:14.111Z,2.00
2018-02-17T07:57:48.917Z,2.10
2018-02-17T08:00:27.802Z,2.10
2018-02-17T08:03:01.710Z,2.10
2018-02-17T08:05:40.911Z,2.20
2018-02-17T08:08:21.141Z,2.30
2018-02-17T08:10:55.030Z,2.30
2018-02-17T08:13:36.118Z,2.30
2018-02-17T08:16:08.297Z,2.30
2018-02-17T08:18:48.133Z,2.40
2018-02-17T08:21:28.678Z,2.40
2018-02-17T08:24:05.593Z,2.50
2018-02-17T08:26:45.674Z,2.50
2018-02-17T08:29:25.532Z,2.70
2018-02-17T08:32:00.853Z,2.80
2018-02-17T08:34:40.403Z,2.90
2018-02-17T08:37:20.996Z,2.90
2018-02-17T08:39:59.052Z,2.90
2018-02-17T08:42:39.197Z,3.00
2018-02-17T08:45:18.869Z,3.10
2018-02-17T08:47:58.361Z,3.30
2018-02-17T08:50:31.772Z,3.20
2018-02-17T08:53:08.663Z,3.30
2018-02-17T08:55:49.944Z,3.30
2018-02-17T08:58:30.524Z,3.40
2018-02-17T09:01:06.886Z,3.50
2018-02-17T09:03:41.592Z,3.50
2018-02-17T09:06:21.392Z,3.60
2018-02-17T09:08:59.467Z,3.60
2018-02-17T09:11:40.136Z,3.70
2018-02-17T09:14:16.291Z,3.70
2018-02-17T09:16:57.725Z,3.80
2018-02-17T09:19:32.084Z,3.90
2018-02-17T09:22:13.279Z,3.80
2018-02-17T09:24:56.589Z,4.10
2018-02-17T09:27:36.561Z,4.10
2018-02-17T09:30:17.180Z,4.20
2018-02-17T09:32:58.911Z,4.20
2018-02-17T09:35:34.120Z,4.60
2018-02-17T09:38:13.446Z,4.60
2018-02-17T09:40:51.378Z,4.70
2018-02-17T09:43:29.136Z,5.00
2018-02-17T09:46:07.523Z,5.10
2018-02-17T09:48:42.594Z,5.20
2018-02-17T09:51:22.813Z,5.30
2018-02-17T09:54:02.756Z,5.40
2018-02-17T09:56:35.646Z,5.50
2018-02-17T09:59:14.509Z,5.60
2018-02-17T10:01:54.630Z,5.40
2018-02-17T10:04:32.995Z,5.50
2018-02-17T10:07:08.160Z,5.60
2018-02-17T10:09:42.756Z,5.90
2018-02-17T10:12:21.992Z,5.90
2018-02-17T10:15:01.841Z,5.90
2018-02-17T10:17:40.253Z,6.10
2018-02-17T10:20:15.061Z,6.30
2018-02-17T10:22:58.343Z,6.30
2018-02-17T10:25:32.336Z,6.40
2018-02-17T10:28:12.374Z,6.80
2018-02-17T10:30:50.859Z,6.70
2018-02-17T10:33:29.180Z,6.80
2018-02-17T10:36:03.431Z,6.60
2018-02-17T10:38:42.827Z,6.10
2018-02-17T10:41:21.228Z,6.50
2018-02-17T10:44:00.621Z,6.50
2018-02-17T10:46:41.263Z,7.90
2018-02-17T10:49:14.068Z,7.80
2018-02-17T10:51:55.018Z,8.20
2018-02-17T10:54:32.255Z,8.20
2018-02-17T10:57:11.740Z,8.60
2018-02-17T10:59:49.490Z,8.80
2018-02-17T11:02:25.634Z,9.30
2018-02-17T11:05:04.848Z,9.70
2018-02-17T11:07:45.243Z,9.70
2018-02-17T11:10:23.200Z,9.90
2018-02-17T11:13:04.453Z,8.80
2018-02-17T11:15:43.841Z,8.80
2018-02-17T11:18:27.137Z,9.10
2018-02-17T11:21:05.054Z,9.00
2018-02-17T11:23:41.098Z,8.70
2018-02-17T11:26:14.866Z,8.70
2018-02-17T11:28:49.242Z,8.60
2018-02-17T11:31:28.721Z,7.80
2018-02-17T11:34:07.692Z,7.80
2018-02-17T11:36:41.136Z,7.90
2018-02-17T11:39:19.108Z,7.40
2018-02-17T11:41:58.298Z,7.70
2018-02-17T11:44:32.409Z,8.00
2018-02-17T11:47:06.495Z,8.20
2018-02-17T11:49:43.259Z,8.00
2018-02-17T11:52:23.295Z,9.00
2018-02-17T11:54:57.881Z,9.30
2018-02-17T11:57:37.839Z,9.30
2018-02-17T12:00:17.897Z,8.50
2018-02-17T12:02:51.295Z,7.90
2018-02-17T12:05:25.724Z,8.10
2018-02-17T12:08:05.906Z,9.20
2018-02-17T12:10:46.078Z,10.50
2018-02-17T12:13:26.640Z,10.50
2018-02-17T12:15:59.568Z,10.60
2018-02-17T12:18:41.350Z,10.60
2018-02-17T12:21:20.980Z,10.50
2018-02-17T12:24:03.193Z,9.70
2018-02-17T12:26:36.847Z,9.60
2018-02-17T12:29:17.160Z,9.80
2018-02-17T12:31:55.672Z,10.80
2018-02-17T12:34:30.201Z,11.50
2018-02-17T12:37:09.214Z,11.60
2018-02-17T12:39:47.299Z,10.70
2018-02-17T12:42:26.560Z,11.20
2018-02-17T12:44:59.312Z,10.40
2018-02-17T12:47:34.398Z,9.70
2018-02-17T12:50:12.922Z,9.80
2018-02-17T12:52:52.852Z,9.20
2018-02-17T12:55:29.042Z,9.20
2018-02-17T12:58:04.389Z,9.10
2018-02-17T13:00:38.738Z,9.10
2018-02-17T13:03:13.470Z,9.60
2018-02-17T13:05:46.906Z,10.00
2018-02-17T13:08:26.117Z,10.20
2018-02-17T13:11:03.767Z,9.60
2018-02-17T13:13:42.739Z,9.40
2018-02-17T13:16:21.829Z,8.80
2018-02-17T13:18:57.898Z,8.80
2018-02-17T13:21:33.942Z,9.40
2018-02-17T13:24:12.631Z,9.00
2018-02-17T13:26:48.428Z,9.00
2018-02-17T13:29:22.394Z,9.40
2018-02-17T13:32:01.433Z,9.60
2018-02-17T13:34:43.206Z,9.60
2018-02-17T13:37:23.648Z,9.50
2018-02-17T13:39:58.751Z,9.50
2018-02-17T13:42:37.956Z,9.30
2018-02-17T13:45:16.157Z,8.80
2018-02-17T13:47:53.504Z,8.80
2018-02-17T13:50:32.585Z,8.90
2018-02-17T13:53:06.472Z,9.00
2018-02-17T13:55:47.168Z,9.00
2018-02-17T13:58:29.123Z,9.20
2018-02-17T14:01:01.606Z,9.10
2018-02-17T14:03:42.467Z,9.20
2018-02-17T14:06:17.520Z,9.10
2018-02-17T14:08:56.873Z,9.00
2018-02-17T14:11:38.660Z,9.00
2018-02-17T14:14:18.945Z,9.00
2018-02-17T14:16:59.078Z,8.90
2018-02-17T14:19:32.646Z,8.70
2018-02-17T14:22:12.862Z,8.70
2018-02-17T14:24:54.991Z,8.60
2018-02-17T14:27:32.500Z,8.60
2018-02-17T14:30:10.479Z,8.40
2018-02-17T14:32:47.059Z,8.40
2018-02-17T14:35:20.252Z,8.40
2018-02-17T14:37:54.576Z,8.30
2018-02-17T14:40:28.355Z,8.20
2018-02-17T14:43:02.279Z,8.10
2018-02-17T14:45:45.588Z,8.10
2018-02-17T14:48:25.713Z,8.10
2018-02-17T14:50:59.606Z,8.20
2018-02-17T14:53:38.335Z,8.10
2018-02-17T14:56:16.672Z,8.10
2018-02-17T14:58:51.454Z,8.10
2018-02-17T15:01:25.199Z,8.10
2018-02-17T15:03:58.356Z,8.10
2018-02-17T15:06:40.733Z,8.20
2018-02-17T15:09:13.761Z,8.70
2018-02-17T15:11:54.092Z,10.00
2018-02-17T15:14:31.851Z,10.00
2018-02-17T15:17:10.672Z,10.20
2018-02-17T15:19:44.516Z,10.30
2018-02-17T15:22:16.838Z,9.80
2018-02-17T15:24:56.986Z,10.10
2018-02-17T15:27:34.755Z,10.10
2018-02-17T15:30:09.886Z,10.00
2018-02-17T15:32:44.952Z,9.50
2018-02-17T15:35:24.648Z,8.70
2018-02-17T15:38:05.559Z,8.60
2018-02-17T15:40:44.666Z,8.00
2018-02-17T15:43:24.477Z,7.70
2018-02-17T15:46:03.368Z,7.50
2018-02-17T15:48:45.371Z,7.00
2018-02-17T15:51:25.309Z,7.00
2018-02-17T15:54:07.178Z,7.10
2018-02-17T15:56:48.069Z,7.10
2018-02-17T15:59:21.455Z,7.00
2018-02-17T16:01:59.929Z,6.90
2018-02-17T16:04:35.816Z,6.90
2018-02-17T16:07:16.129Z,6.80
2018-02-17T16:09:50.229Z,6.70
2018-02-17T16:12:30.880Z,6.60
2018-02-17T16:15:13.879Z,6.50
2018-02-17T16:17:53.939Z,6.50
2018-02-17T16:20:32.138Z,6.50
2018-02-17T16:23:10.443Z,6.50
2018-02-17T16:25:43.890Z,6.40
2018-02-17T16:28:18.274Z,6.20
2018-02-17T16:30:52.356Z,6.20
2018-02-17T16:33:26.472Z,6.10
2018-02-17T16:36:05.206Z,6.10
2018-02-17T16:38:45.937Z,6.10
2018-02-17T16:41:32.027Z,6.00
2018-02-17T16:44:10.848Z,5.90
2018-02-17T16:46:51.148Z,5.90
2018-02-17T16:49:24.594Z,5.80
2018-02-17T16:51:58.656Z,5.70
2018-02-17T16:54:32.017Z,5.70
2018-02-17T16:57:10.044Z,5.60
2018-02-17T16:59:43.322Z,5.60
2018-02-17T17:02:16.352Z,5.50
2018-02-17T17:04:56.036Z,5.50
2018-02-17T17:07:29.338Z,5.40
2018-02-17T17:10:02.904Z,5.30
2018-02-17T17:12:37.598Z,5.10
2018-02-17T17:15:16.348Z,5.20
2018-02-17T17:17:50.254Z,5.10
2018-02-17T17:20:30.221Z,5.00
2018-02-17T17:23:09.255Z,5.00
2018-02-17T17:25:48.608Z,4.90
2018-02-17T17:28:22.582Z,4.90
2018-02-17T17:31:01.733Z,4.80
2018-02-17T17:33:39.484Z,4.80
2018-02-17T17:36:22.050Z,4.70
2018-02-17T17:38:55.266Z,4.60
2018-02-17T17:41:28.390Z,4.60
2018-02-17T17:44:08.256Z,4.50
2018-02-17T17:46:42.300Z,4.50
2018-02-17T17:49:20.754Z,4.50
2018-02-17T17:51:59.257Z,4.40
2018-02-17T17:54:32.765Z,4.40
2018-02-17T17:57:11.940Z,4.40
2018-02-17T17:59:51.181Z,4.40
2018-02-17T18:02:30.112Z,4.30
2018-02-17T18:05:07.753Z,4.40
2018-02-17T18:07:41.269Z,4.20
2018-02-17T18:10:19.272Z,4.10
2018-02-17T18:12:52.909Z,4.10
2018-02-17T18:15:34.545Z,4.10
2018-02-17T18:18:08.419Z,4.00
2018-02-17T18:20:46.676Z,4.00
2018-02-17T18:23:26.617Z,3.90
2018-02-17T18:26:01.136Z,3.90
2018-02-17T18:28:36.225Z,3.80
2018-02-17T18:31:15.076Z,3.80
2018-02-17T18:33:55.758Z,3.80
2018-02-17T18:36:36.779Z,3.80
2018-02-17T18:39:15.993Z,3.70
2018-02-17T18:41:55.861Z,3.50
2018-02-17T18:44:36.116Z,3.50
2018-02-17T18:47:15.392Z,3.50
2018-02-17T18:49:55.256Z,3.50
2018-02-17T18:52:36.207Z,3.50
2018-02-17T18:55:16.553Z,3.40
2018-02-17T18:57:55.664Z,3.40
2018-02-17T19:00:36.370Z,3.40
2018-02-17T19:03:16.078Z,3.40
2018-02-17T19:05:57.346Z,3.30
2018-02-17T19:08:37.545Z,3.30
2018-02-17T19:11:19.237Z,3.20
2018-02-17T19:14:02.178Z,3.10
2018-02-17T19:16:39.826Z,3.10
2018-02-17T19:19:19.286Z,3.00
2018-02-17T19:21:52.466Z,3.00
2018-02-17T19:24:32.056Z,3.00
2018-02-17T19:27:10.348Z,3.00
2018-02-17T19:29:42.278Z,2.90
2018-02-17T19:32:21.000Z,2.90
2018-02-17T19:34:58.048Z,2.90
2018-02-17T19:37:38.488Z,2.80
2018-02-17T19:40:11.530Z,2.80
2018-02-17T19:42:50.448Z,2.70
2018-02-17T19:45:30.844Z,2.60
2018-02-17T19:48:09.752Z,2.60
2018-02-17T19:50:47.479Z,2.60
2018-02-17T19:53:28.936Z,2.60
2018-02-17T19:56:07.505Z,2.50
2018-02-17T19:58:47.059Z,2.40
2018-02-17T20:01:27.498Z,2.40
2018-02-17T20:04:07.241Z,2.40
2018-02-17T20:06:45.448Z,2.40
2018-02-17T20:09:26.372Z,2.40
2018-02-17T20:12:04.339Z,2.40
2018-02-17T20:14:45.494Z,2.40
2018-02-17T20:17:24.383Z,2.40
2018-02-17T20:20:01.846Z,2.40
2018-02-17T20:22:41.030Z,2.40
2018-02-17T20:25:15.113Z,2.30
2018-02-17T20:27:53.091Z,2.30
2018-02-17T20:30:33.028Z,2.30
2018-02-17T20:33:13.416Z,2.20
2018-02-17T20:35:54.705Z,2.20
2018-02-17T20:38:35.086Z,2.20
2018-02-17T20:41:15.897Z,2.30
2018-02-17T20:43:54.203Z,2.10
2018-02-17T20:46:31.740Z,2.10
2018-02-17T20:49:00.671Z,2.10
2018-02-17T20:51:41.062Z,2.00
2018-02-17T20:54:20.460Z,2.00
2018-02-17T20:57:02.803Z,1.90
2018-02-17T20:59:41.101Z,2.00
2018-02-17T21:05:04.134Z,2.10
2018-02-17T21:07:42.691Z,2.20
2018-02-17T21:10:16.900Z,2.00
2018-02-17T21:12:55.327Z,2.00
2018-02-17T21:15:34.070Z,2.00
2018-02-17T21:18:14.373Z,2.00
2018-02-17T21:20:53.302Z,1.90
2018-02-17T21:23:31.948Z,2.00
2018-02-17T21:26:13.170Z,1.90
2018-02-17T21:28:51.350Z,1.90
2018-02-17T21:31:31.023Z,1.90
2018-02-17T21:34:08.391Z,1.90
2018-02-17T21:36:47.058Z,1.90
2018-02-17T21:39:22.819Z,1.90
2018-02-17T21:41:55.956Z,1.80
2018-02-17T21:44:33.007Z,1.80
2018-02-17T21:47:12.950Z,1.80
2018-02-17T21:49:52.425Z,1.80
2018-02-17T21:52:30.502Z,1.70
2018-02-17T21:55:09.094Z,1.70
2018-02-17T21:57:46.224Z,1.70
2018-02-17T22:00:26.018Z,1.60
2018-02-17T22:03:05.811Z,1.60
2018-02-17T22:05:44.488Z,1.60
2018-02-17T22:08:17.830Z,1.60
2018-02-17T22:10:51.555Z,1.60
2018-02-17T22:13:31.312Z,1.70
2018-02-17T22:16:04.118Z,1.80
2018-02-17T22:18:37.484Z,1.80
2018-02-17T22:21:14.724Z,1.80
2018-02-17T22:23:53.768Z,1.70
2018-02-17T22:26:27.221Z,1.70
2018-02-17T22:29:06.689Z,1.70
2018-02-17T22:31:46.965Z,1.50
2018-02-17T22:34:28.081Z,1.50
2018-02-17T22:37:03.591Z,1.50
2018-02-17T22:39:42.959Z,1.40
2018-02-17T22:42:21.875Z,1.40
2018-02-17T22:45:01.199Z,1.50
2018-02-17T22:47:34.446Z,1.50
2018-02-17T22:50:14.083Z,1.50
2018-02-17T22:52:53.517Z,1.40
2018-02-17T22:55:35.248Z,1.30
2018-02-17T22:58:17.409Z,1.30
2018-02-17T23:00:54.487Z,1.30
2018-02-17T23:03:32.826Z,1.20
2018-02-17T23:06:10.603Z,1.10
2018-02-17T23:08:49.258Z,1.10
2018-02-17T23:11:28.882Z,1.10
2018-02-17T23:14:03.472Z,1.10
2018-02-17T23:16:37.118Z,1.10
2018-02-17T23:19:16.183Z,1.00
2018-02-17T23:21:55.593Z,1.00
2018-02-17T23:24:33.024Z,1.00
2018-02-17T23:27:11.986Z,1.00
2018-02-17T23:29:49.539Z,1.00
2018-02-17T23:32:27.035Z,1.00
2018-02-17T23:35:08.542Z,0.90
2018-02-17T23:37:41.988Z,0.90
2018-02-17T23:40:15.429Z,0.90
2018-02-17T23:42:53.507Z,0.80
2018-02-17T23:45:31.651Z,0.80
2018-02-17T23:48:04.032Z,0.80
2018-02-17T23:50:37.374Z,0.70
2018-02-17T23:53:17.004Z,0.60
2018-02-17T23:55:54.733Z,0.70
2018-02-17T23:58:32.654Z,0.60
